createdAt,value
2016-04-13T04:43:53.428Z,100179
2016-04-13T04:44:11.382Z,100188
2016-04-13T04:44:29.663Z,100179
2016-04-13T04:44:47.947Z,100179
2016-04-13T04:45:06.056Z,100173
2016-04-13T04:45:24.338Z,100182
2016-04-13T04:45:42.605Z,100179
2016-04-13T04:46:00.887Z,100168
2016-04-13T04:46:19.152Z,100182
2016-04-13T04:46:37.421Z,100176
2016-04-13T04:46:55.718Z,100162
2016-04-13T04:47:13.999Z,100176
2016-04-13T04:47:32.267Z,100168
2016-04-13T04:47:50.548Z,100179
2016-04-13T04:48:08.829Z,100173
2016-04-13T04:48:27.095Z,100179
2016-04-13T04:48:45.379Z,100176
2016-04-13T04:49:03.660Z,100179
2016-04-13T04:49:21.941Z,100173
2016-04-13T04:49:40.210Z,100176
2016-04-13T04:49:58.491Z,100176
2016-04-13T04:50:16.788Z,100168
2016-04-13T04:50:35.041Z,100176
2016-04-13T04:50:53.338Z,100162
2016-04-13T04:51:11.619Z,100167
2016-04-13T04:51:29.901Z,100162
2016-04-13T04:51:48.184Z,100167
2016-04-13T04:52:06.465Z,100167
2016-04-13T04:52:24.746Z,100170
2016-04-13T04:52:43.015Z,100162
2016-04-13T04:53:01.281Z,100162
2016-04-13T04:53:19.577Z,100159
2016-04-13T04:53:37.876Z,100159
2016-04-13T04:53:56.158Z,100162
2016-04-13T04:54:14.439Z,100164
2016-04-13T04:54:32.707Z,100159
2016-04-13T04:54:50.989Z,100165
2016-04-13T04:55:09.286Z,100164
2016-04-13T04:55:27.551Z,100164
2016-04-13T04:55:45.835Z,100164
2016-04-13T04:56:04.117Z,100167
2016-04-13T04:56:22.398Z,100153
2016-04-13T04:56:40.667Z,100156
2016-04-13T04:56:58.963Z,100159
2016-04-13T04:57:17.229Z,100164
2016-04-13T04:57:35.513Z,100161
2016-04-13T04:57:53.779Z,100170
2016-04-13T04:58:12.076Z,100158
2016-04-13T04:58:30.357Z,100158
2016-04-13T04:58:48.626Z,100153
2016-04-13T04:59:06.907Z,100158
2016-04-13T04:59:25.188Z,100159
2016-04-13T04:59:43.471Z,100161
2016-04-13T05:00:01.768Z,100159
2016-04-13T05:00:20.065Z,100159
2016-04-13T05:00:38.318Z,100167
2016-04-13T05:00:56.631Z,100153
2016-04-13T05:01:14.928Z,100161
2016-04-13T05:01:33.180Z,100153
2016-04-13T05:01:51.461Z,100156
2016-04-13T05:02:09.742Z,100156
2016-04-13T05:02:28.023Z,100159
2016-04-13T05:02:46.292Z,100162
2016-04-13T05:03:04.573Z,100167
2016-04-13T05:03:22.870Z,100156
2016-04-13T05:03:41.170Z,100156
2016-04-13T05:03:59.436Z,100159
2016-04-13T05:04:17.701Z,100156
2016-04-13T05:04:36.031Z,100156
2016-04-13T05:04:54.141Z,100159
2016-04-13T05:05:12.438Z,100150
2016-04-13T05:05:30.703Z,100150
2016-04-13T05:05:49.003Z,100170
2016-04-13T05:06:07.284Z,100167
2016-04-13T05:06:25.550Z,100156
2016-04-13T05:06:43.928Z,100156
2016-04-13T05:07:02.131Z,100159
2016-04-13T05:07:20.412Z,100162
2016-04-13T05:07:38.711Z,100153
2016-04-13T05:07:57.024Z,100156
2016-04-13T05:08:15.258Z,100159
2016-04-13T05:08:33.542Z,100162
2016-04-13T05:08:51.824Z,100150
2016-04-13T05:09:09.949Z,100162
2016-04-13T05:09:28.214Z,100159
2016-04-13T05:09:46.483Z,100159
2016-04-13T05:10:04.780Z,100153
2016-04-13T05:10:23.030Z,100147
2016-04-13T05:10:41.330Z,100156
2016-04-13T05:10:59.626Z,100162
2016-04-13T05:11:17.892Z,100156
2016-04-13T05:11:36.175Z,100150
2016-04-13T05:11:54.457Z,100147
2016-04-13T05:12:12.738Z,100147
2016-04-13T05:12:31.003Z,100150
2016-04-13T05:12:49.303Z,100156
2016-04-13T05:13:07.585Z,100159
2016-04-13T05:13:25.866Z,100153
2016-04-13T05:13:44.133Z,100145
2016-04-13T05:14:02.446Z,100145
2016-04-13T05:14:20.696Z,100143
2016-04-13T05:14:38.996Z,100146
2016-04-13T05:14:57.261Z,100146
2016-04-13T05:15:15.543Z,100143
2016-04-13T05:15:33.826Z,100143
2016-04-13T05:15:52.092Z,100147
2016-04-13T05:16:10.373Z,100143
2016-04-13T05:16:28.638Z,100153
2016-04-13T05:16:46.938Z,100147
2016-04-13T05:17:05.220Z,100143
2016-04-13T05:17:23.501Z,100143
2016-04-13T05:17:41.785Z,100146
2016-04-13T05:18:00.035Z,100140
2016-04-13T05:18:18.348Z,100146
2016-04-13T05:18:36.616Z,100143
2016-04-13T05:18:54.897Z,100134
2016-04-13T05:19:13.163Z,100146
2016-04-13T05:19:31.444Z,100137
2016-04-13T05:19:49.729Z,100140
2016-04-13T05:20:07.994Z,100146
2016-04-13T05:20:26.307Z,100143
2016-04-13T05:20:44.559Z,100131
2016-04-13T05:21:02.824Z,100137
2016-04-13T05:21:21.106Z,100131
2016-04-13T05:21:39.375Z,100134
2016-04-13T05:21:57.672Z,100128
2016-04-13T05:22:15.938Z,100140
2016-04-13T05:22:34.064Z,100131
2016-04-13T05:22:52.345Z,100137
2016-04-13T05:23:10.626Z,100137
2016-04-13T05:23:28.892Z,100125
2016-04-13T05:23:47.020Z,100134
2016-04-13T05:24:05.285Z,100134
2016-04-13T05:24:23.567Z,100137
2016-04-13T05:24:41.851Z,100140
2016-04-13T05:25:00.132Z,100134
2016-04-13T05:25:18.413Z,100134
2016-04-13T05:25:36.713Z,100125
2016-04-13T05:25:55.010Z,100131
2016-04-13T05:26:13.291Z,100131
2016-04-13T05:26:31.557Z,100131
2016-04-13T05:26:49.841Z,100131
2016-04-13T05:27:08.123Z,100134
2016-04-13T05:27:26.388Z,100128
2016-04-13T05:27:44.687Z,100131
2016-04-13T05:28:02.968Z,100134
2016-04-13T05:28:21.234Z,100126
2016-04-13T05:28:39.503Z,100126
2016-04-13T05:28:57.815Z,100140
2016-04-13T05:29:16.174Z,100134
2016-04-13T05:29:34.443Z,100131
2016-04-13T05:29:52.740Z,100137
2016-04-13T05:30:11.037Z,100137
2016-04-13T05:30:29.287Z,100143
2016-04-13T05:30:47.570Z,100134
2016-04-13T05:31:05.867Z,100134
2016-04-13T05:31:24.133Z,100134
2016-04-13T05:31:42.401Z,100146
2016-04-13T05:32:00.682Z,100131
2016-04-13T05:32:18.979Z,100147
2016-04-13T05:32:37.263Z,100145
2016-04-13T05:32:55.544Z,100143
2016-04-13T05:33:13.825Z,100134
2016-04-13T05:33:32.091Z,100147
2016-04-13T05:33:50.376Z,100137
2016-04-13T05:34:08.642Z,100150
2016-04-13T05:34:26.923Z,100134
2016-04-13T05:34:45.190Z,100143
2016-04-13T05:35:03.487Z,100146
2016-04-13T05:35:21.753Z,100143
2016-04-13T05:35:40.053Z,100146
2016-04-13T05:35:58.318Z,100153
2016-04-13T05:36:16.600Z,100143
2016-04-13T05:36:34.867Z,100146
2016-04-13T05:36:52.852Z,100143
2016-04-13T05:37:11.133Z,100131
2016-04-13T05:37:29.414Z,100147
2016-04-13T05:37:47.698Z,100137
2016-04-13T05:38:05.823Z,100150
2016-04-13T05:38:24.089Z,100140
2016-04-13T05:38:42.372Z,100147
2016-04-13T05:39:00.654Z,100137
2016-04-13T05:39:18.919Z,100150
2016-04-13T05:39:37.204Z,100147
2016-04-13T05:39:55.486Z,100147
2016-04-13T05:40:13.767Z,100146
2016-04-13T05:40:32.048Z,100146
2016-04-13T05:40:50.316Z,100146
2016-04-13T05:41:08.628Z,100150
2016-04-13T05:41:26.894Z,100156
2016-04-13T05:41:45.178Z,100146
2016-04-13T05:42:03.444Z,100153
2016-04-13T05:42:21.709Z,100147
2016-04-13T05:42:39.977Z,100147
2016-04-13T05:42:58.258Z,100147
2016-04-13T05:43:16.540Z,100159
2016-04-13T05:43:34.824Z,100153
2016-04-13T05:43:53.121Z,100150
2016-04-13T05:44:11.386Z,100143
2016-04-13T05:44:29.652Z,100153
2016-04-13T05:44:47.936Z,100150
2016-04-13T05:45:06.202Z,100150
2016-04-13T05:45:24.499Z,100147
2016-04-13T05:45:42.766Z,100162
2016-04-13T05:46:01.048Z,100143
2016-04-13T05:46:19.329Z,100150
2016-04-13T05:46:37.597Z,100147
2016-04-13T05:46:55.879Z,100153
2016-04-13T05:47:14.176Z,100147
2016-04-13T05:47:32.441Z,100147
2016-04-13T05:47:50.725Z,100159
2016-04-13T05:48:09.007Z,100159
2016-04-13T05:48:27.288Z,100156
2016-04-13T05:48:45.556Z,100165
2016-04-13T05:49:03.837Z,100153
2016-04-13T05:49:22.102Z,100156
2016-04-13T05:49:40.402Z,100153
2016-04-13T05:49:58.590Z,100159
2016-04-13T05:50:16.855Z,100159
2016-04-13T05:50:35.124Z,100173
2016-04-13T05:50:53.421Z,100165
2016-04-13T05:51:11.687Z,100159
2016-04-13T05:51:29.983Z,100159
2016-04-13T05:51:47.610Z,100162
2016-04-13T05:52:05.892Z,100159
2016-04-13T05:52:24.173Z,100165
2016-04-13T05:52:42.457Z,100159
2016-04-13T05:53:00.723Z,100153
2016-04-13T05:53:20.613Z,100162
2016-04-13T05:53:38.899Z,100170
2016-04-13T05:53:57.180Z,100167
2016-04-13T05:54:15.446Z,100170
2016-04-13T05:54:33.729Z,100159
2016-04-13T05:54:52.010Z,100164
2016-04-13T05:55:10.276Z,100164
2016-04-13T05:55:28.557Z,100167
2016-04-13T05:55:46.840Z,100158
2016-04-13T05:56:05.121Z,100173
2016-04-13T05:56:23.559Z,100161
2016-04-13T05:56:41.843Z,100164
2016-04-13T05:57:00.124Z,100150
2016-04-13T05:57:18.406Z,100162
2016-04-13T05:57:36.690Z,100164
2016-04-13T05:57:54.956Z,100162
2016-04-13T05:58:13.237Z,100164
2016-04-13T05:58:31.502Z,100173
2016-04-13T05:58:49.787Z,100164
2016-04-13T05:59:08.068Z,100167
2016-04-13T05:59:26.334Z,100156
2016-04-13T05:59:44.695Z,100153
2016-04-13T06:00:03.117Z,100161
2016-04-13T06:00:25.273Z,100161
2016-04-13T06:00:43.464Z,100164
2016-04-13T06:01:01.635Z,100159
2016-04-13T06:01:19.901Z,100156
2016-04-13T06:01:38.185Z,100159
2016-04-13T06:01:56.451Z,100150
2016-04-13T06:02:14.717Z,100159
2016-04-13T06:02:33.013Z,100150
2016-04-13T06:02:51.281Z,100159
2016-04-13T06:03:08.906Z,100159
2016-04-13T06:03:27.203Z,100145
2016-04-13T06:03:45.472Z,100145
2016-04-13T06:04:03.753Z,100145
2016-04-13T06:04:21.878Z,100150
2016-04-13T06:04:40.192Z,100147
2016-04-13T06:04:58.583Z,100147
2016-04-13T06:05:16.864Z,100156
2016-04-13T06:05:35.134Z,100142
2016-04-13T06:05:53.415Z,100145
2016-04-13T06:06:11.696Z,100142
2016-04-13T06:06:30.009Z,100145
2016-04-13T06:06:48.276Z,100142
2016-04-13T06:07:06.558Z,100147
2016-04-13T06:07:24.839Z,100140
2016-04-13T06:07:43.139Z,100153
2016-04-13T06:08:01.420Z,100147
2016-04-13T06:08:19.686Z,100150
2016-04-13T06:08:37.970Z,100142
2016-04-13T06:08:56.251Z,100147
2016-04-13T06:09:14.517Z,100147
2016-04-13T06:09:32.782Z,100153
2016-04-13T06:09:51.066Z,100142
2016-04-13T06:10:09.363Z,100140
2016-04-13T06:10:27.659Z,100150
2016-04-13T06:10:45.928Z,100139
2016-04-13T06:11:04.053Z,100156
2016-04-13T06:11:22.319Z,100159
2016-04-13T06:11:40.650Z,100150
2016-04-13T06:11:58.931Z,100153
2016-04-13T06:12:17.197Z,100145
2016-04-13T06:12:35.497Z,100147
2016-04-13T06:12:53.793Z,100156
2016-04-13T06:13:12.075Z,100145
2016-04-13T06:13:30.340Z,100150
2016-04-13T06:13:48.655Z,100153
2016-04-13T06:14:06.952Z,100145
2016-04-13T06:14:25.249Z,100153
2016-04-13T06:14:43.469Z,100142
2016-04-13T06:15:01.719Z,100142
2016-04-13T06:15:20.016Z,100150
2016-04-13T06:15:38.285Z,100145
2016-04-13T06:15:56.582Z,100159
2016-04-13T06:16:14.894Z,100150
2016-04-13T06:16:33.160Z,100147
2016-04-13T06:16:51.444Z,100142
2016-04-13T06:17:09.710Z,100145
2016-04-13T06:17:27.975Z,100147
2016-04-13T06:17:46.259Z,100153
2016-04-13T06:18:04.524Z,100142
2016-04-13T06:18:22.805Z,100147
2016-04-13T06:18:41.090Z,100145
2016-04-13T06:18:59.371Z,100147
2016-04-13T06:19:17.652Z,100142
2016-04-13T06:19:35.921Z,100142
2016-04-13T06:19:54.202Z,100150
2016-04-13T06:20:14.561Z,100140
2016-04-13T06:20:32.843Z,100143
2016-04-13T06:20:51.111Z,100156
2016-04-13T06:21:09.408Z,100143
2016-04-13T06:21:27.658Z,100145
2016-04-13T06:21:45.988Z,100153
2016-04-13T06:22:04.285Z,100147
2016-04-13T06:22:22.551Z,100145
2016-04-13T06:22:40.836Z,100134
2016-04-13T06:22:59.117Z,100137
2016-04-13T06:23:17.414Z,100137
2016-04-13T06:23:35.682Z,100147
2016-04-13T06:23:53.932Z,100140
2016-04-13T06:24:12.213Z,100131
2016-04-13T06:24:30.510Z,100137
2016-04-13T06:24:48.793Z,100134
2016-04-13T06:25:07.199Z,100131
2016-04-13T06:25:25.465Z,100137
2016-04-13T06:25:43.749Z,100128
2016-04-13T06:26:02.031Z,100128
2016-04-13T06:26:20.343Z,100143
2016-04-13T06:26:38.612Z,100128
2016-04-13T06:26:56.909Z,100128
2016-04-13T06:27:15.159Z,100131
2016-04-13T06:27:33.487Z,100137
2016-04-13T06:27:51.568Z,100134
2016-04-13T06:28:09.849Z,100125
2016-04-13T06:28:28.115Z,100131
2016-04-13T06:28:46.398Z,100131
2016-04-13T06:29:04.007Z,100123
2016-04-13T06:29:22.179Z,100134
2016-04-13T06:29:40.463Z,100134
2016-04-13T06:29:58.745Z,100123
2016-04-13T06:30:17.010Z,100123
2016-04-13T06:30:35.279Z,100120
2016-04-13T06:30:53.560Z,100123
2016-04-13T06:31:11.841Z,100120
2016-04-13T06:31:30.107Z,100140
2016-04-13T06:31:48.390Z,100128
2016-04-13T06:32:06.672Z,100128
2016-04-13T06:32:24.953Z,100125
2016-04-13T06:32:43.268Z,100131
2016-04-13T06:33:01.596Z,100123
2016-04-13T06:33:19.862Z,100114
2016-04-13T06:33:38.161Z,100117
2016-04-13T06:33:56.442Z,100134
2016-04-13T06:34:14.739Z,100131
2016-04-13T06:34:33.005Z,100117
2016-04-13T06:34:51.289Z,100117
2016-04-13T06:35:09.555Z,100134
2016-04-13T06:35:27.836Z,100131
2016-04-13T06:35:46.120Z,100134
2016-04-13T06:36:04.386Z,100131
2016-04-13T06:36:22.683Z,100128
2016-04-13T06:36:40.794Z,100125
2016-04-13T06:36:59.091Z,100128
2016-04-13T06:37:17.200Z,100140
2016-04-13T06:37:35.485Z,100140
2016-04-13T06:37:53.767Z,100134
2016-04-13T06:38:12.048Z,100137
2016-04-13T06:38:30.329Z,100131
2016-04-13T06:38:48.612Z,100131
2016-04-13T06:39:06.878Z,100131
2016-04-13T06:39:25.159Z,100131
2016-04-13T06:39:43.443Z,100125
2016-04-13T06:40:01.724Z,100134
2016-04-13T06:40:20.036Z,100137
2016-04-13T06:40:38.306Z,100137
2016-04-13T06:40:56.587Z,100137
2016-04-13T06:41:14.868Z,100122
2016-04-13T06:41:33.165Z,100131
2016-04-13T06:41:51.449Z,100128
2016-04-13T06:42:09.714Z,100128
2016-04-13T06:42:27.995Z,100140
2016-04-13T06:42:46.280Z,100128
2016-04-13T06:43:04.561Z,100125
2016-04-13T06:43:22.827Z,100128
2016-04-13T06:43:41.157Z,100134
2016-04-13T06:43:59.422Z,100140
2016-04-13T06:44:17.719Z,100145
2016-04-13T06:44:36.003Z,100131
2016-04-13T06:44:54.285Z,100137
2016-04-13T06:45:12.582Z,100131
2016-04-13T06:45:30.863Z,100143
2016-04-13T06:45:49.131Z,100125
2016-04-13T06:46:07.413Z,100134
2016-04-13T06:46:25.678Z,100134
2016-04-13T06:46:43.963Z,100128
2016-04-13T06:47:02.244Z,100128
2016-04-13T06:47:20.525Z,100125
2016-04-13T06:47:38.824Z,100131
2016-04-13T06:47:57.090Z,100137
2016-04-13T06:48:15.355Z,100128
2016-04-13T06:48:33.652Z,100131
2016-04-13T06:48:51.952Z,100134
2016-04-13T06:49:10.218Z,100128
2016-04-13T06:49:28.499Z,100126
2016-04-13T06:49:46.766Z,100137
2016-04-13T06:50:05.063Z,100134
2016-04-13T06:50:23.329Z,100131
2016-04-13T06:50:41.599Z,100134
2016-04-13T06:50:59.880Z,100126
2016-04-13T06:51:18.161Z,100120
2016-04-13T06:51:36.444Z,100140
2016-04-13T06:51:54.741Z,100126
2016-04-13T06:52:12.835Z,100134
2016-04-13T06:52:31.101Z,100126
2016-04-13T06:52:49.385Z,100140
2016-04-13T06:53:07.650Z,100134
2016-04-13T06:53:25.932Z,100131
2016-04-13T06:53:44.215Z,100137
2016-04-13T06:54:02.465Z,100128
2016-04-13T06:54:20.746Z,100126
2016-04-13T06:54:38.905Z,100134
2016-04-13T06:54:57.187Z,100134
2016-04-13T06:55:15.452Z,100134
2016-04-13T06:55:33.734Z,100131
2016-04-13T06:55:52.002Z,100131
2016-04-13T06:56:10.283Z,100131
2016-04-13T06:56:28.580Z,100128
2016-04-13T06:56:46.880Z,100126
2016-04-13T06:57:05.161Z,100137
2016-04-13T06:57:23.490Z,100134
2016-04-13T06:57:41.804Z,100137
2016-04-13T06:58:00.085Z,100123
2016-04-13T06:58:18.367Z,100126
2016-04-13T06:58:36.651Z,100126
2016-04-13T06:58:54.916Z,100120
2016-04-13T06:59:13.198Z,100131
2016-04-13T06:59:31.463Z,100129
2016-04-13T06:59:49.748Z,100129
2016-04-13T07:00:08.013Z,100123
2016-04-13T07:00:26.310Z,100129
2016-04-13T07:00:44.578Z,100140
2016-04-13T07:01:02.875Z,100123
2016-04-13T07:01:21.125Z,100134
2016-04-13T07:01:39.409Z,100126
2016-04-13T07:01:57.674Z,100131
2016-04-13T07:02:16.003Z,100131
2016-04-13T07:02:34.237Z,100126
2016-04-13T07:02:52.521Z,100137
2016-04-13T07:03:10.802Z,100131
2016-04-13T07:03:29.084Z,100140
2016-04-13T07:03:47.367Z,100134
2016-04-13T07:04:05.476Z,100137
2016-04-13T07:04:23.758Z,100140
2016-04-13T07:04:42.042Z,100148
2016-04-13T07:05:00.292Z,100140
2016-04-13T07:05:18.573Z,100140
2016-04-13T07:05:36.857Z,100140
2016-04-13T07:05:55.139Z,100137
2016-04-13T07:06:13.404Z,100146
2016-04-13T07:06:31.670Z,100143
2016-04-13T07:06:49.953Z,100148
2016-04-13T07:07:08.125Z,100143
2016-04-13T07:07:26.234Z,100137
2016-04-13T07:07:44.519Z,100140
2016-04-13T07:08:02.815Z,100148
2016-04-13T07:08:20.925Z,100143
2016-04-13T07:08:39.208Z,100146
2016-04-13T07:08:57.474Z,100137
2016-04-13T07:09:15.755Z,100143
2016-04-13T07:09:33.896Z,100146
2016-04-13T07:09:52.180Z,100143
2016-04-13T07:10:10.320Z,100143
2016-04-13T07:10:28.586Z,100137
2016-04-13T07:10:46.870Z,100134
2016-04-13T07:11:05.011Z,100140
2016-04-13T07:11:23.292Z,100143
2016-04-13T07:11:41.560Z,100137
2016-04-13T07:11:59.935Z,100143
2016-04-13T07:12:18.200Z,100129
2016-04-13T07:12:36.469Z,100140
2016-04-13T07:12:54.813Z,100137
2016-04-13T07:13:13.094Z,100131
2016-04-13T07:13:30.719Z,100137
2016-04-13T07:13:48.972Z,100129
2016-04-13T07:14:07.253Z,100137
2016-04-13T07:14:25.519Z,100126
2016-04-13T07:14:43.819Z,100132
2016-04-13T07:15:02.084Z,100123
2016-04-13T07:15:20.381Z,100134
2016-04-13T07:15:38.650Z,100129
2016-04-13T07:15:56.947Z,100123
2016-04-13T07:16:15.212Z,100129
2016-04-13T07:16:33.509Z,100129
2016-04-13T07:16:51.793Z,100129
2016-04-13T07:17:10.074Z,100132
2016-04-13T07:17:28.355Z,100126
2016-04-13T07:17:46.655Z,100120
2016-04-13T07:18:04.921Z,100134
2016-04-13T07:18:23.217Z,100132
2016-04-13T07:18:41.486Z,100126
2016-04-13T07:18:59.767Z,100137
2016-04-13T07:19:18.049Z,100129
2016-04-13T07:19:36.332Z,100146
2016-04-13T07:19:54.597Z,100126
2016-04-13T07:20:12.863Z,100134
2016-04-13T07:20:31.160Z,100134
2016-04-13T07:20:49.461Z,100134
2016-04-13T07:21:07.726Z,100134
2016-04-13T07:21:26.023Z,100126
2016-04-13T07:21:44.307Z,100132
2016-04-13T07:22:02.619Z,100129
2016-04-13T07:22:20.853Z,100134
2016-04-13T07:22:39.153Z,100140
2016-04-13T07:22:57.419Z,100137
2016-04-13T07:23:15.716Z,100134
2016-04-13T07:23:33.966Z,100140
2016-04-13T07:23:52.250Z,100129
2016-04-13T07:24:10.531Z,100140
2016-04-13T07:24:28.828Z,100137
2016-04-13T07:24:47.096Z,100137
2016-04-13T07:25:05.393Z,100143
2016-04-13T07:25:23.643Z,100143
2016-04-13T07:25:41.927Z,100129
2016-04-13T07:26:00.224Z,100140
2016-04-13T07:26:18.489Z,100126
2016-04-13T07:26:36.757Z,100137
2016-04-13T07:26:55.023Z,100132
2016-04-13T07:27:13.304Z,100134
2016-04-13T07:27:31.601Z,100129
2016-04-13T07:27:49.713Z,100137
2016-04-13T07:28:07.994Z,100134
2016-04-13T07:28:26.260Z,100129
2016-04-13T07:28:44.544Z,100134
2016-04-13T07:29:02.826Z,100129
2016-04-13T07:29:21.107Z,100134
2016-04-13T07:29:39.406Z,100140
2016-04-13T07:29:57.671Z,100129
2016-04-13T07:30:15.937Z,100134
2016-04-13T07:30:34.203Z,100137
2016-04-13T07:30:52.549Z,100134
2016-04-13T07:31:10.690Z,100132
2016-04-13T07:31:28.987Z,100117
2016-04-13T07:31:47.254Z,100120
2016-04-13T07:32:05.551Z,100123
2016-04-13T07:32:23.817Z,100120
2016-04-13T07:32:42.336Z,100123
2016-04-13T07:33:00.617Z,100120
2016-04-13T07:33:18.882Z,100117
2016-04-13T07:33:37.182Z,100123
2016-04-13T07:33:55.464Z,100111
2016-04-13T07:34:13.776Z,100114
2016-04-13T07:34:32.042Z,100117
2016-04-13T07:34:50.341Z,100112
2016-04-13T07:35:08.606Z,100117
2016-04-13T07:35:26.887Z,100114
2016-04-13T07:35:45.188Z,100112
2016-04-13T07:36:03.454Z,100114
2016-04-13T07:36:21.751Z,100106
2016-04-13T07:36:40.018Z,100114
2016-04-13T07:36:58.143Z,100112
2016-04-13T07:37:16.268Z,100112
2016-04-13T07:37:34.534Z,100120
2016-04-13T07:37:52.818Z,100117
2016-04-13T07:38:11.100Z,100120
2016-04-13T07:38:29.365Z,100103
2016-04-13T07:38:47.649Z,100117
2016-04-13T07:39:05.931Z,100120
2016-04-13T07:39:24.212Z,100117
2016-04-13T07:39:42.480Z,100114
2016-04-13T07:40:00.792Z,100109
2016-04-13T07:40:18.917Z,100112
2016-04-13T07:40:37.201Z,100117
2016-04-13T07:40:55.483Z,100114
2016-04-13T07:41:13.779Z,100120
2016-04-13T07:41:32.029Z,100106
2016-04-13T07:41:50.314Z,100112
2016-04-13T07:42:08.579Z,100114
2016-04-13T07:42:26.845Z,100112
2016-04-13T07:42:45.128Z,100120
2016-04-13T07:43:03.394Z,100112
2016-04-13T07:43:21.675Z,100112
2016-04-13T07:43:39.959Z,100112
2016-04-13T07:43:58.241Z,100112
2016-04-13T07:44:16.506Z,100117
2016-04-13T07:44:34.772Z,100123
2016-04-13T07:44:53.039Z,100114
2016-04-13T07:45:11.321Z,100106
2016-04-13T07:45:29.602Z,100112
2016-04-13T07:45:47.902Z,100120
2016-04-13T07:46:06.167Z,100109
2016-04-13T07:46:24.433Z,100106
2016-04-13T07:46:42.702Z,100114
2016-04-13T07:47:00.967Z,100114
2016-04-13T07:47:19.233Z,100117
2016-04-13T07:47:37.516Z,100109
2016-04-13T07:47:55.829Z,100117
2016-04-13T07:48:14.110Z,100109
2016-04-13T07:48:32.407Z,100117
2016-04-13T07:48:50.660Z,100112
2016-04-13T07:49:08.941Z,100120
2016-04-13T07:49:27.254Z,100109
2016-04-13T07:49:45.507Z,100117
2016-04-13T07:50:03.803Z,100117
2016-04-13T07:50:22.053Z,100106
2016-04-13T07:50:40.322Z,100112
2016-04-13T07:50:58.603Z,100109
2016-04-13T07:51:16.885Z,100106
2016-04-13T07:51:35.166Z,100100
2016-04-13T07:51:53.419Z,100109
2016-04-13T07:52:11.872Z,100109
2016-04-13T07:52:29.981Z,100109
2016-04-13T07:52:48.249Z,100109
2016-04-13T07:53:06.530Z,100106
2016-04-13T07:53:24.811Z,100103
2016-04-13T07:53:43.096Z,100109
2016-04-13T07:54:01.361Z,100103
2016-04-13T07:54:19.658Z,100103
2016-04-13T07:54:37.926Z,100103
2016-04-13T07:54:56.301Z,100109
2016-04-13T07:55:14.551Z,100109
2016-04-13T07:55:32.832Z,100103
2016-04-13T07:55:51.101Z,100103
2016-04-13T07:56:09.382Z,100100
2016-04-13T07:56:27.663Z,100106
2016-04-13T07:56:45.854Z,100114
2016-04-13T07:57:04.119Z,100109
2016-04-13T07:57:22.416Z,100112
2016-04-13T07:57:40.699Z,100100
2016-04-13T07:57:58.981Z,100103
2016-04-13T07:58:17.246Z,100106
2016-04-13T07:58:35.512Z,100109
2016-04-13T07:58:53.797Z,100109
2016-04-13T07:59:12.078Z,100106
2016-04-13T07:59:30.344Z,100112
2016-04-13T07:59:48.643Z,100106
2016-04-13T08:00:06.909Z,100109
2016-04-13T08:00:25.252Z,100112
2016-04-13T08:00:43.537Z,100106
2016-04-13T08:01:01.818Z,100106
2016-04-13T08:01:20.115Z,100094
2016-04-13T08:01:38.368Z,100109
2016-04-13T08:01:56.649Z,100103
2016-04-13T08:02:14.930Z,100103
2016-04-13T08:02:33.196Z,100112
2016-04-13T08:02:51.479Z,100112
2016-04-13T08:03:09.745Z,100106
2016-04-13T08:03:28.026Z,100114
2016-04-13T08:03:46.310Z,100103
2016-04-13T08:04:04.638Z,100106
2016-04-13T08:04:22.904Z,100106
2016-04-13T08:04:41.218Z,100103
2016-04-13T08:04:59.484Z,100103
2016-04-13T08:05:17.828Z,100103
2016-04-13T08:05:36.109Z,100103
2016-04-13T08:05:54.378Z,100114
2016-04-13T08:06:12.659Z,100109
2016-04-13T08:06:30.956Z,100114
2016-04-13T08:06:49.303Z,100114
2016-04-13T08:07:07.521Z,100106
2016-04-13T08:07:25.646Z,100106
2016-04-13T08:07:43.914Z,100106
2016-04-13T08:08:02.211Z,100103
2016-04-13T08:08:20.341Z,100120
2016-04-13T08:08:38.641Z,100120
2016-04-13T08:08:56.766Z,100106
2016-04-13T08:09:15.062Z,100103
2016-04-13T08:09:33.312Z,100100
2016-04-13T08:09:51.580Z,100097
2016-04-13T08:10:09.846Z,100089
2016-04-13T08:10:28.111Z,100097
2016-04-13T08:10:46.396Z,100097
2016-04-13T08:11:04.677Z,100109
2016-04-13T08:11:22.349Z,100112
2016-04-13T08:11:40.633Z,100100
2016-04-13T08:11:58.899Z,100097
2016-04-13T08:12:17.180Z,100106
2016-04-13T08:12:35.461Z,100103
2016-04-13T08:12:53.729Z,100106
2016-04-13T08:13:11.994Z,100100
2016-04-13T08:13:30.291Z,100103
2016-04-13T08:13:48.576Z,100097
2016-04-13T08:14:06.873Z,100097
2016-04-13T08:14:25.123Z,100109
2016-04-13T08:14:43.422Z,100100
2016-04-13T08:15:01.703Z,100106
2016-04-13T08:15:19.985Z,100094
2016-04-13T08:15:38.300Z,100089
2016-04-13T08:15:56.581Z,100103
2016-04-13T08:16:14.863Z,100103
2016-04-13T08:16:33.160Z,100094
2016-04-13T08:16:51.428Z,100097
2016-04-13T08:17:09.709Z,100109
2016-04-13T08:17:27.991Z,100100
2016-04-13T08:17:46.102Z,100097
2016-04-13T08:18:04.399Z,100097
2016-04-13T08:18:22.680Z,100097
2016-04-13T08:18:40.964Z,100097
2016-04-13T08:18:59.230Z,100097
2016-04-13T08:19:17.496Z,100097
2016-04-13T08:19:35.793Z,100100
2016-04-13T08:19:54.077Z,100100
2016-04-13T08:20:12.358Z,100103
2016-04-13T08:20:30.624Z,100100
2016-04-13T08:20:48.813Z,100092
2016-04-13T08:21:07.094Z,100097
2016-04-13T08:21:25.376Z,100106
2016-04-13T08:21:43.644Z,100094
2016-04-13T08:22:01.926Z,100094
2016-04-13T08:22:20.066Z,100092
2016-04-13T08:22:38.335Z,100094
2016-04-13T08:22:56.616Z,100086
2016-04-13T08:23:14.913Z,100097
2016-04-13T08:23:33.163Z,100092
2016-04-13T08:23:51.447Z,100097
2016-04-13T08:24:09.713Z,100100
2016-04-13T08:24:28.010Z,100100
2016-04-13T08:24:46.278Z,100097
2016-04-13T08:25:04.560Z,100100
2016-04-13T08:25:22.841Z,100103
2016-04-13T08:25:41.124Z,100092
2016-04-13T08:25:59.390Z,100097
2016-04-13T08:26:17.671Z,100100
2016-04-13T08:26:35.952Z,100103
2016-04-13T08:26:54.221Z,100100
2016-04-13T08:27:12.361Z,100094
2016-04-13T08:27:30.627Z,100094
2016-04-13T08:27:48.910Z,100100
2016-04-13T08:28:07.192Z,100097
2016-04-13T08:28:25.520Z,100100
2016-04-13T08:28:43.788Z,100092
2016-04-13T08:29:02.132Z,100092
2016-04-13T08:29:20.398Z,100097
2016-04-13T08:29:38.573Z,100089
2016-04-13T08:29:56.901Z,100103
2016-04-13T08:30:15.166Z,100092
2016-04-13T08:30:33.463Z,100094
2016-04-13T08:30:51.746Z,100100
2016-04-13T08:31:10.012Z,100097
2016-04-13T08:31:28.340Z,100100
2016-04-13T08:31:46.656Z,100106